Time,TemperatureF,DewpointF,PressureIn,WindDirection,WindDirectionDegrees,WindSpeedMPH,WindSpeedGustMPH,Humidity,HourlyPrecipIn,Conditions,Clouds,dailyrainin,SoftwareType,DateUTC
2014-04-01 00:21:00,59.0,16.0,29.84,SW,229,15.0,22.0,18,0.00,,,0.00,,2014-04-01 07:21:00,
2014-04-01 00:32:00,59.0,16.0,29.84,SW,229,15.0,22.0,18,0.00,,,0.00,,2014-04-01 07:32:00,
2014-04-01 00:42:00,59.0,16.0,29.84,SW,229,15.0,22.0,18,0.00,,,0.00,,2014-04-01 07:42:00,
2014-04-01 00:52:00,58.0,16.0,29.84,SW,219,16.0,22.0,19,0.00,,,0.00,,2014-04-01 07:52:00,
2014-04-01 01:21:00,57.0,16.0,29.84,SW,221,15.0,25.0,20,0.00,,,0.00,,2014-04-01 08:21:00,
2014-04-01 01:52:00,56.0,14.0,29.84,SSW,196,14.0,23.0,19,0.00,,,0.00,,2014-04-01 08:52:00,
2014-04-01 02:21:00,54.0,15.0,29.85,SW,218,14.0,26.0,21,0.00,,,0.00,,2014-04-01 09:21:00,
2014-04-01 02:43:00,54.0,20.0,29.86,SSW,195,13.0,24.0,26,0.00,,,0.00,,2014-04-01 09:43:00,
2014-04-01 03:23:00,52.0,25.0,29.85,SW,215,13.0,24.0,34,0.00,,,0.00,,2014-04-01 10:23:00,
2014-04-01 03:42:00,52.0,27.0,29.86,SW,214,16.0,25.0,38,0.00,,,0.00,,2014-04-01 10:42:00,
2014-04-01 03:53:00,51.0,28.0,29.87,SW,217,16.0,23.0,40,0.00,,,0.00,,2014-04-01 10:53:00,
2014-04-01 04:12:00,51.0,29.0,29.87,SSW,201,7.0,17.0,43,0.00,,,0.00,,2014-04-01 11:12:00,
2014-04-01 04:22:00,51.0,29.0,29.87,SSW,201,7.0,17.0,43,0.00,,,0.00,,2014-04-01 11:22:00,
2014-04-01 04:42:00,51.0,30.0,29.86,South,187,8.0,12.0,44,0.00,,,0.00,,2014-04-01 11:42:00,
2014-04-01 04:52:00,51.0,30.0,29.86,SSW,195,8.0,15.0,45,0.00,,,0.00,,2014-04-01 11:52:00,
2014-04-01 05:12:00,51.0,31.0,29.86,SW,221,8.0,13.0,46,0.00,,,0.00,,2014-04-01 12:12:00,
2014-04-01 05:21:00,51.0,33.0,29.87,West,261,8.0,16.0,50,0.00,,,0.00,,2014-04-01 12:21:00,
2014-04-01 05:42:00,50.0,33.0,29.86,SW,232,8.0,14.0,51,0.00,,,0.00,,2014-04-01 12:42:00,
2014-04-01 05:52:00,49.0,32.0,29.86,SSW,192,6.0,10.0,52,0.00,,,0.00,,2014-04-01 12:52:00,
2014-04-01 06:02:00,-999.0,-99.9,29.87,SW,218,7.0,12.0,-999,0.00,,,0.00,,2014-04-01 13:02:00,
2014-04-01 06:11:00,49.0,33.0,29.87,SW,218,7.0,12.0,53,0.00,,,0.00,,2014-04-01 13:11:00,
2014-04-01 06:22:00,49.0,34.0,29.86,South,188,10.0,15.0,55,0.00,,,0.00,,2014-04-01 13:22:00,
2014-04-01 06:42:00,48.0,34.0,29.86,SSW,205,12.0,16.0,57,0.00,,,0.00,,2014-04-01 13:42:00,
2014-04-01 06:52:00,48.0,35.0,29.85,SSW,201,12.0,21.0,60,0.00,,,0.00,,2014-04-01 13:52:00,
2014-04-01 07:11:00,48.0,35.0,29.86,South,189,12.0,18.0,60,0.00,,,0.00,,2014-04-01 14:11:00,
2014-04-01 07:21:00,48.0,34.0,29.85,SSW,210,17.0,26.0,58,0.00,,,0.00,,2014-04-01 14:21:00,
2014-04-01 07:42:00,49.0,34.0,29.85,SW,234,18.0,26.0,55,0.00,,,0.00,,2014-04-01 14:42:00,
2014-04-01 07:51:00,50.0,31.0,29.86,SSW,206,15.0,23.0,48,0.00,,,0.00,,2014-04-01 14:51:00,
2014-04-01 08:11:00,50.0,30.0,29.88,South,180,12.0,22.0,46,0.00,,,0.00,,2014-04-01 15:11:00,
2014-04-01 08:21:00,51.0,29.0,29.88,South,186,13.0,20.0,42,0.00,,,0.00,,2014-04-01 15:21:00,
2014-04-01 08:43:00,52.0,29.0,29.89,South,191,11.0,19.0,41,0.00,,,0.00,,2014-04-01 15:43:00,
2014-04-01 08:52:00,53.0,27.0,29.90,South,177,13.0,22.0,37,0.00,,,0.00,,2014-04-01 15:52:00,
2014-04-01 09:12:00,53.0,26.0,29.90,SW,220,14.0,19.0,35,0.00,,,0.00,,2014-04-01 16:12:00,
2014-04-01 09:23:00,53.0,27.0,29.90,WSW,247,18.0,24.0,36,0.00,,,0.00,,2014-04-01 16:23:00,
2014-04-01 09:53:00,54.0,27.0,29.92,WSW,255,10.0,19.0,35,0.00,,,0.00,,2014-04-01 16:53:00,
2014-04-01 10:22:00,55.0,26.0,29.92,SSW,209,16.0,21.0,32,0.00,,,0.00,,2014-04-01 17:22:00,
2014-04-01 10:53:00,56.0,24.0,29.92,SW,233,12.0,24.0,29,0.00,,,0.00,,2014-04-01 17:53:00,
2014-04-01 11:22:00,59.0,24.0,29.91,SW,232,13.0,22.0,26,0.00,,,0.00,,2014-04-01 18:22:00,
2014-04-01 11:42:00,59.0,22.0,29.91,SW,219,10.0,17.0,24,0.00,,,0.00,,2014-04-01 18:42:00,
2014-04-01 11:52:00,59.0,21.0,29.91,WSW,238,9.0,17.0,23,0.00,,,0.00,,2014-04-01 18:52:00,
2014-04-01 12:22:00,61.0,22.0,29.90,SW,231,11.0,20.0,22,0.00,,,0.00,,2014-04-01 19:22:00,
2014-04-01 12:52:00,62.0,19.0,29.89,SW,215,11.0,21.0,19,0.00,,,0.00,,2014-04-01 19:52:00,
2014-04-01 13:21:00,62.0,19.0,29.88,SW,222,17.0,22.0,19,0.00,,,0.00,,2014-04-01 20:21:00,
2014-04-01 13:32:00,62.0,19.0,29.88,SW,222,17.0,22.0,19,0.00,,,0.00,,2014-04-01 20:32:00,
2014-04-01 13:52:00,63.0,18.0,29.88,SSW,213,13.0,26.0,17,0.00,,,0.00,,2014-04-01 20:52:00,
2014-04-01 14:21:00,62.0,19.0,29.87,SSW,202,13.0,23.0,19,0.00,,,0.00,,2014-04-01 21:21:00,
2014-04-01 14:53:00,62.0,18.0,29.86,SW,229,6.0,26.0,18,0.00,,,0.00,,2014-04-01 21:53:00,
2014-04-01 15:22:00,63.0,18.0,29.85,SW,219,15.0,24.0,17,0.00,,,0.00,,2014-04-01 22:22:00,
2014-04-01 15:54:00,63.0,19.0,29.84,SW,232,15.0,23.0,18,0.00,,,0.00,,2014-04-01 22:54:00,
2014-04-01 16:22:00,63.0,18.0,29.83,SW,216,16.0,21.0,17,0.00,,,0.00,,2014-04-01 23:22:00,
2014-04-01 16:52:00,63.0,16.0,29.83,SW,223,14.0,22.0,16,0.00,,,0.00,,2014-04-01 23:52:00,
2014-04-01 17:22:00,63.0,15.0,29.82,SSW,194,17.0,29.0,15,0.00,,,0.00,,2014-04-02 00:22:00,
2014-04-01 17:52:00,62.0,14.0,29.82,South,191,14.0,22.0,15,0.00,,,0.00,,2014-04-02 00:52:00,
2014-04-01 18:22:00,61.0,16.0,29.82,South,169,17.0,25.0,17,0.00,,,0.00,,2014-04-02 01:22:00,
2014-04-01 18:52:00,60.0,15.0,29.82,SSW,211,12.0,17.0,17,0.00,,,0.00,,2014-04-02 01:52:00,
2014-04-01 19:22:00,58.0,15.0,29.83,SSW,205,13.0,19.0,18,0.00,,,0.00,,2014-04-02 02:22:00,
2014-04-01 19:52:00,57.0,14.0,29.82,SSW,209,10.0,17.0,18,0.00,,,0.00,,2014-04-02 02:52:00,
2014-04-01 20:22:00,57.0,15.0,29.83,SW,215,12.0,21.0,19,0.00,,,0.00,,2014-04-02 03:22:00,
2014-04-01 20:54:00,56.0,16.0,29.83,SW,219,15.0,24.0,20,0.00,,,0.00,,2014-04-02 03:54:00,
2014-04-01 21:23:00,55.0,16.0,29.84,SSW,212,12.0,20.0,21,0.00,,,0.00,,2014-04-02 04:23:00,
2014-04-01 21:54:00,55.0,18.0,29.83,SW,215,19.0,27.0,23,0.00,,,0.00,,2014-04-02 04:54:00,
2014-04-01 22:22:00,54.0,21.0,29.84,SW,229,14.0,24.0,27,0.00,,,0.00,,2014-04-02 05:22:00,
2014-04-01 22:52:00,53.0,23.0,29.85,SSW,211,11.0,18.0,31,0.00,,,0.00,,2014-04-02 05:52:00,
2014-04-01 23:21:00,52.0,25.0,29.85,SW,234,15.0,20.0,35,0.00,,,0.00,,2014-04-02 06:21:00,
2014-04-01 23:52:00,52.0,27.0,29.86,SW,217,13.0,20.0,37,0.00,,,0.00,,2014-04-02 06:52:00,